»·PEaware :: N572B KEUG-KPDX

N572B :: KEUG-KPDX

FLIGHT INFORMATION

Flight Status: Arrived
Operator: Privately registered:
United States
More flights under this callsign
Pilot: Anonymous 8799 (8799)
Aircraft: CESSNA 340
(C340)
More flights by this aircraft type
Origin: KEUG Mahlon Sweet
United States
Destination: KPDX Portland Intl
United States
More flights between these airports :: More routes between these airports
Route: CVO V495 UBG
File this flight plan on PilotEdge
Remarks:
Altitude:
(Current/Filed)
5,000ft
Speed:
(Current/Filed)
160kts
Departed: 10-Nov-18 09:52 AM
Arrived: 10-Nov-18 10:42 AM
Distance/Time
Traveled:
92nm/0:49
Distance/Time
To Go:
Arrived

Flight Plot

Page will automatically refresh every two minutes.

Flight plan parsing failed; only flown route is shown


Map Options




Map Legend


Flown Route
Filed Route
Departure Airport
Arrival Airport
Navaid (VOR, NDB)
Fix

Horizontal Profiles

Position Reports

Time Latitude Longitude Heading Altitude Ground
Speed
10-Nov-18 09:39 44.117924 -123.215193 42 378ft 0kts
10-Nov-18 09:40 44.117924 -123.215193 42 378ft 0kts
10-Nov-18 09:41 44.117924 -123.215193 42 378ft 0kts
10-Nov-18 09:42 44.117924 -123.215193 42 378ft 0kts
10-Nov-18 09:43 44.117924 -123.215193 42 378ft 0kts
10-Nov-18 09:44 44.117924 -123.215193 42 378ft 0kts
10-Nov-18 09:45 44.117924 -123.215193 42 378ft 0kts
10-Nov-18 09:46 44.117924 -123.215193 42 378ft 0kts
10-Nov-18 09:47 44.117924 -123.215193 42 378ft 0kts
10-Nov-18 09:48 44.120161 -123.216656 339 378ft 13kts
10-Nov-18 09:49 44.124509 -123.217102 4 378ft 22kts
10-Nov-18 09:50 44.129553 -123.217169 355 378ft 17kts
10-Nov-18 09:51 44.133661 -123.217127 356 378ft 13kts
10-Nov-18 09:52 44.135337 -123.217732 278 378ft 0kts
10-Nov-18 09:53 44.135341 -123.217819 271 378ft 0kts
10-Nov-18 09:54 44.134025 -123.219111 179 378ft 22kts
10-Nov-18 09:55 44.109860 -123.219676 184 800ft 113kts
10-Nov-18 09:56 44.078204 -123.221322 174 1776ft 124kts
10-Nov-18 09:57 44.045081 -123.220946 175 2989ft 98kts
10-Nov-18 09:58 44.012887 -123.222249 199 3615ft 134kts
10-Nov-18 09:59 44.022977 -123.259903 354 4161ft 151kts
10-Nov-18 10:00 44.064927 -123.267206 1 4662ft 154kts
10-Nov-18 10:01 44.108320 -123.269741 1 5000ft 166kts
10-Nov-18 10:02 44.156534 -123.272607 1 4992ft 178kts
10-Nov-18 10:03 44.205974 -123.274955 353 4992ft 179kts
10-Nov-18 10:04 44.255499 -123.278545 353 4993ft 178kts
10-Nov-18 10:05 44.304319 -123.281655 353 4995ft 176kts
10-Nov-18 10:06 44.352657 -123.284657 353 4997ft 173kts
10-Nov-18 10:07 44.399292 -123.287531 354 4997ft 172kts
10-Nov-18 10:08 44.445340 -123.290367 354 4998ft 170kts
10-Nov-18 10:09 44.492360 -123.293254 355 4999ft 169kts
10-Nov-18 10:10 44.538850 -123.279146 10 4999ft 171kts
10-Nov-18 10:11 44.584998 -123.262505 11 4999ft 171kts
10-Nov-18 10:12 44.631065 -123.245698 11 4999ft 171kts
10-Nov-18 10:13 44.677044 -123.228897 11 4998ft 170kts
10-Nov-18 10:14 44.722822 -123.212138 11 4996ft 169kts
10-Nov-18 10:15 44.768457 -123.195400 12 4994ft 168kts
10-Nov-18 10:16 44.813797 -123.178735 13 4987ft 168kts
10-Nov-18 10:17 44.859170 -123.161990 13 4967ft 168kts
10-Nov-18 10:18 44.904362 -123.145298 13 4963ft 167kts
10-Nov-18 10:19 44.949501 -123.128602 13 4974ft 167kts
10-Nov-18 10:20 44.994691 -123.111860 13 4925ft 169kts
10-Nov-18 10:21 45.040742 -123.094803 14 4834ft 171kts
10-Nov-18 10:22 45.086785 -123.077704 14 4758ft 171kts
10-Nov-18 10:23 45.132960 -123.060504 14 4710ft 171kts
10-Nov-18 10:24 45.167339 -123.022025 65 4764ft 171kts
10-Nov-18 10:25 45.185312 -122.960075 65 4863ft 169kts
10-Nov-18 10:26 45.203026 -122.899645 65 4963ft 167kts
10-Nov-18 10:27 45.220960 -122.839372 65 5009ft 168kts
10-Nov-18 10:28 45.239199 -122.778216 65 5009ft 169kts
10-Nov-18 10:29 45.257492 -122.716912 65 5009ft 169kts
10-Nov-18 10:30 45.276102 -122.654637 65 4727ft 180kts
10-Nov-18 10:31 45.296101 -122.588268 65 4033ft 185kts
10-Nov-18 10:32 45.316327 -122.521354 65 3343ft 187kts
10-Nov-18 10:33 45.336990 -122.454171 65 2653ft 188kts
10-Nov-18 10:34 45.352993 -122.405658 54 3641ft 135kts
10-Nov-18 10:35 45.370713 -122.360659 41 3792ft 162kts
10-Nov-18 10:36 45.405307 -122.323943 35 3257ft 165kts
10-Nov-18 10:37 45.440319 -122.299198 339 2702ft 165kts
10-Nov-18 10:38 45.477814 -122.336102 324 2502ft 139kts
10-Nov-18 10:39 45.506801 -122.372569 311 2231ft 137kts
10-Nov-18 10:40 45.526101 -122.419817 299 1937ft 137kts
10-Nov-18 10:41 45.544355 -122.466489 299 1600ft 131kts
10-Nov-18 10:42 45.560160 -122.506971 300 1025ft 98kts
10-Nov-18 10:43 45.572708 -122.539017 300 532ft 88kts
10-Nov-18 10:44 45.583491 -122.566678 303 103ft 73kts
10-Nov-18 10:45 45.590248 -122.585265 280 33ft 27kts
10-Nov-18 10:46 45.590233 -122.586556 257 33ft 0kts

Navigation Log

Ident Type
Flight plan parsing failed, navigation log unavailable